Time;durP1;ratioP1;P1;durP2;ratioP2;P2;SDS_P1;SDS_P2;PMS_P1;PMS_P2;Temp;Humidity;BMP_temperature;BMP_pressure;BME280_temperature;BME280_humidity;BME280_pressure;Samples;Min_cycle;Max_cycle;Signal;HPM_P1;HPM_P2
2023/08/19 00:00:46;;;;;;;11.80;8.35;;;24.20;99.90;;;;;;5054297;28;20040;-38
2023/08/19 00:03:12;;;;;;;16.02;8.50;;;24.10;99.90;;;;;;5051500;28;20021;-42
2023/08/19 00:05:38;;;;;;;9.13;7.38;;;24.10;99.90;;;;;;5055032;28;20021;-38
2023/08/19 00:08:04;;;;;;;9.75;7.20;;;24.10;99.90;;;;;;5055340;28;20031;-38
2023/08/19 00:10:29;;;;;;;8.95;7.10;;;24.10;99.90;;;;;;5053253;28;20500;-51
2023/08/19 00:12:55;;;;;;;10.20;7.22;;;24.10;99.90;;;;;;5054053;28;20096;-39
2023/08/19 00:15:21;;;;;;;11.25;8.65;;;24.10;99.90;;;;;;5054945;28;20108;-42
2023/08/19 00:17:47;;;;;;;10.88;7.45;;;24.10;99.90;;;;;;5060032;28;20053;-40
2023/08/19 00:20:13;;;;;;;10.40;7.20;;;24.10;99.90;;;;;;5075082;28;20028;-40
2023/08/19 00:22:38;;;;;;;11.25;7.45;;;24.10;99.90;;;;;;5073594;28;20024;-38
2023/08/19 00:25:04;;;;;;;10.20;8.15;;;24.10;99.90;;;;;;5072809;28;20501;-38
2023/08/19 00:27:30;;;;;;;10.15;6.88;;;24.00;99.90;;;;;;5056103;28;20157;-39
2023/08/19 00:29:56;;;;;;;9.40;7.78;;;24.00;99.90;;;;;;5072315;28;20026;-39
2023/08/19 00:32:21;;;;;;;11.65;7.25;;;24.00;99.90;;;;;;5073470;28;20550;-39
2023/08/19 00:34:47;;;;;;;9.52;6.97;;;24.10;99.90;;;;;;5073414;28;20033;-38
2023/08/19 00:37:13;;;;;;;8.70;7.10;;;24.10;99.90;;;;;;5074096;28;20021;-39
2023/08/19 00:39:39;;;;;;;8.02;7.22;;;24.10;99.90;;;;;;5074500;28;20533;-41
2023/08/19 00:42:06;;;;;;;9.98;7.10;;;24.20;99.90;;;;;;5072213;28;20107;-39
2023/08/19 00:44:34;;;;;;;9.80;7.28;;;24.20;99.90;;;;;;5069752;28;20040;-39
2023/08/19 00:47:03;;;;;;;8.90;7.43;;;24.20;99.90;;;;;;5072361;28;20108;-38
2023/08/19 00:49:29;;;;;;;13.75;7.95;;;24.30;99.90;;;;;;5069750;28;20499;-38
2023/08/19 00:51:57;;;;;;;10.27;7.50;;;24.30;99.90;;;;;;5072552;28;20051;-39
2023/08/19 00:54:23;;;;;;;9.13;7.03;;;24.30;99.90;;;;;;5018383;28;20098;-38
2023/08/19 00:56:49;;;;;;;10.25;8.15;;;24.30;99.90;;;;;;5063210;28;20028;-39
2023/08/19 00:59:16;;;;;;;14.10;7.43;;;24.30;99.90;;;;;;5072824;28;20081;-37
2023/08/19 01:01:41;;;;;;;9.43;7.60;;;24.40;99.90;;;;;;5071674;28;20082;-38
2023/08/19 01:04:07;;;;;;;12.63;7.50;;;24.30;99.90;;;;;;5073156;28;20020;-39
2023/08/19 01:07:05;;;;;;;11.00;7.30;;;24.30;99.90;;;;;;5073494;28;20472;-39
2023/08/19 01:09:58;;;;;;;10.43;7.82;;;24.30;99.90;;;;;;5049345;28;20047;-49
2023/08/19 01:12:28;;;;;;;11.50;8.05;;;24.30;99.90;;;;;;5053833;28;20050;-48
2023/08/19 01:15:04;;;;;;;10.32;7.55;;;24.30;99.90;;;;;;5065967;28;20115;-51
2023/08/19 01:17:32;;;;;;;12.32;8.82;;;24.30;99.90;;;;;;5073695;28;20037;-51
2023/08/19 01:19:58;;;;;;;13.75;8.48;;;24.30;99.90;;;;;;5058121;28;20016;-52
2023/08/19 01:23:08;;;;;;;11.27;8.40;;;24.30;99.90;;;;;;5053774;28;20035;-39
2023/08/19 01:25:34;;;;;;;11.90;8.68;;;24.30;99.90;;;;;;4953438;29;20032;-51
2023/08/19 01:28:05;;;;;;;10.73;8.23;;;24.20;99.90;;;;;;5032620;28;20037;-51
2023/08/19 01:30:33;;;;;;;13.52;8.75;;;24.30;99.90;;;;;;5054026;28;20035;-50
2023/08/19 01:32:59;;;;;;;12.27;8.57;;;24.20;99.90;;;;;;5053219;28;20033;-49
2023/08/19 01:35:25;;;;;;;10.40;8.52;;;24.30;99.90;;;;;;5053476;28;20036;-52
2023/08/19 01:37:51;;;;;;;12.10;9.05;;;24.20;99.90;;;;;;5053306;28;20090;-52
2023/08/19 01:40:19;;;;;;;13.88;8.45;;;24.20;99.90;;;;;;5058274;28;20028;-51
2023/08/19 01:42:45;;;;;;;16.08;9.30;;;24.20;99.90;;;;;;5071314;28;20017;-51
2023/08/19 01:45:11;;;;;;;13.43;9.50;;;24.20;99.90;;;;;;5069946;28;20464;-50
2023/08/19 01:47:38;;;;;;;11.45;8.90;;;24.20;99.90;;;;;;5072230;28;20404;-50
2023/08/19 01:50:07;;;;;;;12.00;8.57;;;24.20;99.90;;;;;;5073164;28;20503;-52
2023/08/19 01:52:33;;;;;;;12.35;8.60;;;24.30;99.90;;;;;;5073183;28;20036;-50
2023/08/19 01:54:59;;;;;;;12.05;8.32;;;24.30;99.90;;;;;;5073383;28;20028;-52
2023/08/19 01:57:26;;;;;;;14.75;8.98;;;24.30;99.90;;;;;;5054893;28;20028;-51
2023/08/19 01:59:52;;;;;;;12.40;9.40;;;24.30;99.90;;;;;;5073296;28;20387;-53
2023/08/19 02:02:18;;;;;;;11.23;8.33;;;24.30;99.90;;;;;;5072283;28;20624;-49
2023/08/19 02:04:43;;;;;;;18.65;8.82;;;24.30;99.90;;;;;;5070217;28;20025;-57
2023/08/19 02:07:09;;;;;;;12.65;8.85;;;24.30;99.90;;;;;;5072505;28;20024;-48
2023/08/19 02:09:35;;;;;;;14.38;9.55;;;24.30;99.90;;;;;;5072939;28;20543;-50
2023/08/19 02:12:00;;;;;;;14.85;9.95;;;24.30;99.90;;;;;;5072805;28;20032;-49
2023/08/19 02:14:26;;;;;;;14.55;9.52;;;24.30;99.90;;;;;;5072879;28;20036;-52
2023/08/19 02:16:52;;;;;;;13.57;9.52;;;24.30;99.90;;;;;;5072738;28;20107;-49
2023/08/19 02:19:17;;;;;;;18.50;10.90;;;24.30;99.90;;;;;;5072507;28;20071;-49
2023/08/19 02:21:43;;;;;;;14.68;10.60;;;24.30;99.90;;;;;;5072430;28;20058;-53
2023/08/19 02:24:08;;;;;;;14.07;10.57;;;24.30;99.90;;;;;;5072567;28;20021;-50
2023/08/19 02:26:34;;;;;;;18.08;9.93;;;24.30;99.90;;;;;;5073006;28;20101;-51
2023/08/19 02:29:00;;;;;;;17.30;10.20;;;24.30;99.90;;;;;;5072708;28;20029;-51
2023/08/19 02:31:26;;;;;;;16.05;10.25;;;24.30;99.90;;;;;;5072698;28;20028;-51
2023/08/19 02:33:52;;;;;;;15.98;10.52;;;24.30;99.90;;;;;;5072959;28;20029;-48
2023/08/19 02:36:19;;;;;;;16.00;10.13;;;24.30;99.90;;;;;;5072609;28;20044;-50
2023/08/19 02:38:44;;;;;;;16.40;9.75;;;24.30;99.90;;;;;;5072219;28;20032;-51
2023/08/19 02:41:10;;;;;;;16.25;11.32;;;24.30;99.90;;;;;;5072583;28;20029;-49
2023/08/19 02:43:36;;;;;;;17.05;10.63;;;24.20;99.90;;;;;;5072591;28;20037;-53
2023/08/19 02:46:02;;;;;;;18.70;10.40;;;24.30;99.90;;;;;;5072626;28;20079;-50
2023/08/19 02:48:28;;;;;;;20.23;11.10;;;24.30;99.90;;;;;;5072516;28;20028;-52
2023/08/19 02:50:57;;;;;;;13.73;10.23;;;24.30;99.90;;;;;;5072769;28;20422;-49
2023/08/19 02:53:23;;;;;;;15.30;9.75;;;24.40;99.90;;;;;;5072705;28;20103;-50
2023/08/19 02:55:54;;;;;;;14.20;9.80;;;24.30;99.90;;;;;;5072026;28;20061;-50
2023/08/19 02:58:20;;;;;;;13.60;9.43;;;24.40;99.90;;;;;;5072294;28;20039;-52
2023/08/19 03:00:47;;;;;;;14.60;10.90;;;24.30;99.90;;;;;;5059222;28;20390;-52
2023/08/19 03:03:12;;;;;;;14.50;10.55;;;24.30;99.90;;;;;;5052295;28;20414;-53
2023/08/19 03:05:39;;;;;;;14.32;10.05;;;24.30;99.90;;;;;;5054673;28;20112;-51
2023/08/19 03:08:06;;;;;;;15.57;9.80;;;24.20;99.90;;;;;;5056029;28;20401;-46
2023/08/19 03:10:40;;;;;;;16.27;9.90;;;24.30;99.90;;;;;;5063337;28;20278;-49
2023/08/19 03:13:07;;;;;;;16.55;10.43;;;24.30;99.90;;;;;;5066919;28;20029;-49
2023/08/19 03:15:36;;;;;;;17.55;9.82;;;24.30;99.90;;;;;;5074809;28;20032;-49
2023/08/19 03:18:02;;;;;;;14.90;9.10;;;24.30;99.90;;;;;;5074292;28;20044;-49
2023/08/19 03:20:27;;;;;;;19.73;10.35;;;24.30;99.90;;;;;;5073630;28;20027;-52
2023/08/19 03:22:53;;;;;;;17.75;9.63;;;24.30;99.90;;;;;;5074228;28;20024;-48
2023/08/19 03:25:19;;;;;;;14.95;10.65;;;24.30;99.90;;;;;;5075748;28;20031;-49
2023/08/19 03:27:45;;;;;;;16.00;10.15;;;24.30;99.90;;;;;;5075864;28;20546;-50
2023/08/19 03:30:11;;;;;;;19.40;10.95;;;24.30;99.90;;;;;;5075521;28;20021;-50
2023/08/19 03:32:37;;;;;;;15.07;10.65;;;24.30;99.90;;;;;;5075676;28;20504;-47
2023/08/19 03:35:02;;;;;;;14.25;9.80;;;24.20;99.90;;;;;;5075720;28;20025;-50
2023/08/19 03:37:29;;;;;;;14.63;10.73;;;24.20;99.90;;;;;;5075619;28;20025;-53
2023/08/19 03:39:54;;;;;;;13.30;10.38;;;24.20;99.90;;;;;;5057575;28;20500;-51
2023/08/19 03:42:20;;;;;;;15.00;10.13;;;24.20;99.90;;;;;;5075613;28;20031;-49
2023/08/19 03:44:45;;;;;;;12.73;9.98;;;24.20;99.90;;;;;;5075594;28;20051;-53
2023/08/19 03:47:12;;;;;;;17.65;10.57;;;24.20;99.90;;;;;;5055686;28;20081;-51
2023/08/19 03:49:38;;;;;;;15.07;10.15;;;24.20;99.90;;;;;;5070165;28;20028;-53
2023/08/19 03:52:07;;;;;;;17.25;10.85;;;24.20;99.90;;;;;;5070778;28;20537;-51
2023/08/19 03:54:33;;;;;;;18.73;11.40;;;24.20;99.90;;;;;;5074346;28;20035;-51
2023/08/19 03:56:59;;;;;;;17.20;11.20;;;24.20;99.90;;;;;;5073977;28;20484;-50
2023/08/19 03:59:25;;;;;;;16.20;11.27;;;24.20;99.90;;;;;;5073699;28;20035;-53
2023/08/19 04:01:51;;;;;;;19.08;9.32;;;24.20;99.90;;;;;;5072726;28;20370;-51
2023/08/19 04:04:16;;;;;;;15.43;10.77;;;24.10;99.90;;;;;;5071473;28;20488;-48
2023/08/19 04:06:42;;;;;;;15.80;10.27;;;24.00;99.90;;;;;;5074064;28;20081;-48
2023/08/19 04:09:08;;;;;;;15.95;11.52;;;24.00;99.90;;;;;;5075143;28;20591;-51
2023/08/19 04:11:34;;;;;;;16.77;10.15;;;24.00;99.90;;;;;;5072258;28;20100;-52
2023/08/19 04:13:59;;;;;;;17.05;10.35;;;24.00;99.90;;;;;;5072427;28;20051;-48
2023/08/19 04:16:25;;;;;;;13.50;10.25;;;24.00;99.90;;;;;;5072638;28;20400;-50
2023/08/19 04:18:51;;;;;;;14.00;10.05;;;24.00;99.90;;;;;;5074354;28;20037;-50
2023/08/19 04:21:17;;;;;;;18.50;10.38;;;24.00;99.90;;;;;;5073613;28;20031;-51
2023/08/19 04:23:43;;;;;;;14.98;10.15;;;24.00;99.90;;;;;;5072892;28;20134;-53
2023/08/19 04:26:09;;;;;;;16.63;10.55;;;24.00;99.90;;;;;;5073497;28;20606;-48
2023/08/19 04:28:35;;;;;;;19.73;11.52;;;24.00;99.90;;;;;;5074750;28;20122;-52
2023/08/19 04:31:08;;;;;;;15.60;11.43;;;23.90;99.90;;;;;;5071985;28;20158;-52
2023/08/19 04:33:35;;;;;;;16.83;10.75;;;23.90;99.90;;;;;;5072066;28;20036;-48
2023/08/19 04:36:02;;;;;;;15.88;10.57;;;23.90;99.90;;;;;;5072137;28;20070;-52
2023/08/19 04:38:28;;;;;;;13.45;9.75;;;23.90;99.90;;;;;;5074488;28;20032;-49
2023/08/19 04:40:53;;;;;;;18.48;11.02;;;24.00;99.90;;;;;;5073288;28;20024;-50
2023/08/19 04:43:19;;;;;;;16.75;10.50;;;24.00;99.90;;;;;;5072962;28;20012;-52
2023/08/19 04:45:45;;;;;;;15.02;10.05;;;24.00;99.90;;;;;;5074350;28;20020;-51
2023/08/19 04:48:11;;;;;;;13.38;9.60;;;23.90;99.90;;;;;;5074327;28;20082;-52
2023/08/19 04:50:36;;;;;;;21.17;10.95;;;23.90;99.90;;;;;;5064555;28;20454;-49
2023/08/19 04:53:03;;;;;;;21.65;11.75;;;24.00;99.90;;;;;;5074267;28;20025;-50
2023/08/19 04:55:29;;;;;;;16.35;10.48;;;23.90;99.90;;;;;;5073764;28;20447;-60
2023/08/19 04:57:55;;;;;;;14.65;9.73;;;24.00;99.90;;;;;;5074268;28;20112;-49
2023/08/19 05:00:21;;;;;;;21.17;11.25;;;24.00;99.90;;;;;;5077932;28;20441;-49
2023/08/19 05:02:48;;;;;;;26.55;10.38;;;24.00;99.90;;;;;;5076113;28;20036;-48
2023/08/19 05:05:14;;;;;;;;;;;24.00;99.90;;;;;;5094706;28;20024;-55
2023/08/19 05:07:40;;;;;;;13.68;9.45;;;23.90;99.90;;;;;;5094280;28;19931;-53
2023/08/19 05:10:06;;;;;;;19.20;11.35;;;23.80;99.90;;;;;;5094130;28;20024;-51
2023/08/19 05:12:31;;;;;;;21.48;11.18;;;23.80;99.90;;;;;;5084607;28;20599;-49
2023/08/19 05:14:57;;;;;;;19.85;10.48;;;23.90;99.90;;;;;;5073824;28;20096;-53
2023/08/19 05:17:23;;;;;;;17.00;10.50;;;23.80;99.90;;;;;;5073679;28;20100;-51
2023/08/19 05:19:48;;;;;;;16.55;10.77;;;23.80;99.90;;;;;;5073402;28;20033;-53
2023/08/19 05:22:14;;;;;;;14.50;9.90;;;23.80;99.90;;;;;;5073716;28;20048;-53
2023/08/19 05:24:40;;;;;;;17.20;10.32;;;23.80;99.90;;;;;;5073866;28;20362;-48
2023/08/19 05:27:05;;;;;;;16.55;11.18;;;23.80;99.90;;;;;;5073376;28;20028;-52
2023/08/19 05:29:31;;;;;;;15.07;10.52;;;23.90;99.90;;;;;;5073568;28;20033;-52
2023/08/19 05:31:57;;;;;;;16.08;11.05;;;23.90;99.90;;;;;;5073438;28;20029;-51
2023/08/19 05:34:42;;;;;;;18.70;10.43;;;24.00;99.90;;;;;;5073501;28;20484;-54
2023/08/19 05:37:11;;;;;;;13.98;9.93;;;24.00;99.90;;;;;;5073283;28;20051;-51
2023/08/19 05:39:36;;;;;;;13.80;9.35;;;24.00;99.90;;;;;;5073253;28;20048;-51
2023/08/19 05:42:02;;;;;;;15.05;9.50;;;24.00;99.90;;;;;;5072250;28;20393;-49
2023/08/19 05:44:28;;;;;;;16.00;11.13;;;24.00;99.90;;;;;;5068815;28;20078;-52
2023/08/19 05:46:53;;;;;;;14.70;9.70;;;24.00;99.90;;;;;;5071262;28;20028;-50
2023/08/19 05:49:19;;;;;;;13.07;9.63;;;24.00;99.90;;;;;;5072972;28;20024;-51
2023/08/19 05:51:44;;;;;;;15.38;10.43;;;24.00;99.90;;;;;;5073454;28;20031;-52
2023/08/19 05:54:10;;;;;;;15.35;10.45;;;24.00;99.90;;;;;;5073030;28;20032;-49
2023/08/19 05:56:36;;;;;;;19.77;10.98;;;24.00;99.90;;;;;;5046787;28;20052;-51
2023/08/19 05:59:02;;;;;;;17.27;10.20;;;24.00;99.90;;;;;;5071243;28;20085;-40
2023/08/19 06:01:28;;;;;;;16.07;10.30;;;24.00;99.90;;;;;;5054548;28;20028;-39
2023/08/19 06:03:54;;;;;;;14.43;9.60;;;24.00;99.90;;;;;;5071539;28;20050;-39
2023/08/19 06:06:19;;;;;;;17.33;9.88;;;23.90;99.90;;;;;;5073012;28;20025;-38
2023/08/19 06:08:45;;;;;;;19.20;10.95;;;24.00;99.90;;;;;;5072814;28;20032;-51
2023/08/19 06:11:11;;;;;;;16.67;10.05;;;24.00;99.90;;;;;;5053758;28;20339;-51
2023/08/19 06:13:38;;;;;;;18.65;10.50;;;24.00;99.90;;;;;;5071601;28;20489;-51
2023/08/19 06:16:04;;;;;;;21.80;10.93;;;24.00;99.90;;;;;;5073044;28;20052;-49
2023/08/19 06:18:30;;;;;;;13.50;9.27;;;24.00;99.90;;;;;;5072435;28;20031;-53
2023/08/19 06:20:56;;;;;;;14.68;9.02;;;24.00;99.90;;;;;;5072684;28;20103;-51
2023/08/19 06:23:22;;;;;;;17.45;9.25;;;24.10;99.90;;;;;;5054772;28;20055;-44
2023/08/19 06:25:49;;;;;;;11.85;9.52;;;24.20;99.90;;;;;;5072893;28;20559;-49
2023/08/19 06:28:19;;;;;;;12.68;8.93;;;24.20;99.90;;;;;;5073006;28;20095;-51
2023/08/19 06:30:46;;;;;;;19.08;9.38;;;24.20;99.90;;;;;;5072618;28;20059;-49
2023/08/19 06:33:13;;;;;;;13.57;8.88;;;24.30;99.90;;;;;;5054702;28;20066;-48
2023/08/19 06:35:39;;;;;;;17.30;10.10;;;24.40;99.90;;;;;;5072974;28;20031;-55
2023/08/19 06:38:19;;;;;;;13.70;9.80;;;24.50;99.90;;;;;;5072378;28;20029;-51
2023/08/19 06:41:06;;;;;;;13.00;9.45;;;24.60;99.90;;;;;;5075315;28;20024;-52
2023/08/19 06:43:32;;;;;;;11.93;8.75;;;24.70;99.90;;;;;;5076822;28;20017;-52
2023/08/19 06:46:00;;;;;;;12.63;9.27;;;24.80;99.90;;;;;;5076633;28;20027;-48
2023/08/19 06:48:26;;;;;;;15.80;10.00;;;25.00;99.90;;;;;;5058624;28;20424;-51
2023/08/19 06:50:53;;;;;;;15.77;8.83;;;25.30;99.90;;;;;;5076648;28;20100;-37
2023/08/19 06:53:20;;;;;;;11.70;8.60;;;25.50;99.90;;;;;;5076888;28;20554;-38
2023/08/19 06:55:54;;;;;;;11.25;7.90;;;25.70;99.90;;;;;;5076357;28;20063;-40
2023/08/19 06:58:26;;;;;;;15.23;8.32;;;25.90;99.90;;;;;;5076412;28;20029;-38
2023/08/19 07:01:00;;;;;;;12.10;7.47;;;25.90;99.90;;;;;;5076464;28;20485;-40
2023/08/19 07:03:29;;;;;;;13.90;8.45;;;25.90;99.90;;;;;;5076403;28;20013;-39
2023/08/19 07:05:56;;;;;;;11.63;8.48;;;25.90;99.90;;;;;;5076283;28;20099;-39
2023/08/19 07:08:23;;;;;;;10.73;7.90;;;25.90;99.90;;;;;;5076170;28;20118;-38
2023/08/19 07:10:49;;;;;;;16.30;8.23;;;25.80;99.90;;;;;;5075877;28;20028;-39
2023/08/19 07:13:24;;;;;;;10.63;7.20;;;25.80;99.90;;;;;;5072338;28;20052;-43
2023/08/19 07:16:00;;;;;;;8.63;6.32;;;25.90;99.90;;;;;;5048519;28;20059;-40
2023/08/19 07:18:27;;;;;;;14.55;7.53;;;25.90;99.90;;;;;;5073392;28;20028;-38
2023/08/19 07:20:54;;;;;;;;;;;26.00;99.90;;;;;;5076127;28;20039;-41
2023/08/19 07:23:23;;;;;;;13.50;7.82;;;26.00;99.90;;;;;;5074950;28;20333;-59
2023/08/19 07:25:52;;;;;;;12.68;7.45;;;26.00;99.90;;;;;;5075847;28;20029;-39
2023/08/19 07:28:21;;;;;;;10.75;6.80;;;26.10;99.90;;;;;;5074067;28;20381;-40
2023/08/19 07:30:47;;;;;;;10.15;6.82;;;26.10;99.90;;;;;;5075670;28;20388;-40
2023/08/19 07:33:13;;;;;;;15.27;7.75;;;26.20;99.90;;;;;;5071373;28;20100;-39
2023/08/19 07:35:39;;;;;;;11.27;7.43;;;26.20;99.90;;;;;;5068265;28;20105;-39
2023/08/19 07:38:06;;;;;;;12.60;8.27;;;26.20;99.90;;;;;;5074872;28;20124;-39
2023/08/19 07:40:32;;;;;;;8.95;6.95;;;26.20;99.90;;;;;;5072282;28;20024;-40
2023/08/19 07:42:57;;;;;;;8.98;7.22;;;26.10;99.90;;;;;;5057581;28;20074;-39
2023/08/19 07:45:23;;;;;;;12.48;7.90;;;26.10;99.90;;;;;;5075368;28;20021;-48
2023/08/19 07:47:49;;;;;;;14.93;7.30;;;26.10;99.90;;;;;;5068971;28;20017;-40
2023/08/19 07:50:14;;;;;;;11.27;6.80;;;26.20;99.90;;;;;;5074148;28;20028;-39
2023/08/19 07:52:40;;;;;;;10.27;6.63;;;26.20;99.90;;;;;;5075431;28;20024;-42
2023/08/19 07:55:07;;;;;;;9.85;7.22;;;26.20;99.90;;;;;;5071505;28;20074;-40
2023/08/19 07:57:32;;;;;;;7.70;6.25;;;26.20;99.90;;;;;;5072045;28;20091;-39
2023/08/19 07:59:58;;;;;;;10.20;6.40;;;26.20;99.90;;;;;;5073270;28;20021;-38
2023/08/19 08:02:24;;;;;;;8.48;6.03;;;26.20;99.90;;;;;;5074412;28;20157;-38
2023/08/19 08:04:50;;;;;;;12.27;6.13;;;26.20;99.90;;;;;;5073935;28;20031;-39
2023/08/19 08:07:16;;;;;;;9.02;5.90;;;26.20;99.90;;;;;;5074661;28;20037;-42
2023/08/19 08:09:45;;;;;;;10.35;6.30;;;26.30;99.90;;;;;;5071059;28;20389;-40
2023/08/19 08:12:11;;;;;;;12.05;6.45;;;26.30;99.90;;;;;;5071313;28;20017;-38
2023/08/19 08:14:40;;;;;;;10.30;6.57;;;26.30;99.90;;;;;;5071580;28;20408;-40
2023/08/19 08:17:06;;;;;;;10.30;7.63;;;26.30;99.90;;;;;;5054832;28;20465;-40
2023/08/19 08:19:31;;;;;;;9.57;6.75;;;26.30;99.90;;;;;;5073379;28;20047;-40
2023/08/19 08:21:57;;;;;;;7.43;6.15;;;26.30;99.90;;;;;;5074828;28;20102;-39
2023/08/19 08:24:23;;;;;;;12.55;7.20;;;26.30;99.90;;;;;;5055896;28;20017;-39
2023/08/19 08:26:49;;;;;;;11.75;6.97;;;26.30;99.90;;;;;;5074766;28;20027;-39
2023/08/19 08:29:16;;;;;;;8.40;7.00;;;26.30;99.90;;;;;;5053840;28;20447;-38
2023/08/19 08:31:41;;;;;;;10.85;6.47;;;26.30;99.90;;;;;;5073204;28;20025;-36
2023/08/19 08:34:07;;;;;;;10.55;6.72;;;26.30;99.90;;;;;;5054467;28;20407;-37
2023/08/19 08:36:33;;;;;;;11.05;6.40;;;26.30;99.90;;;;;;5085874;28;20107;-39
2023/08/19 08:38:58;;;;;;;8.80;7.35;;;26.20;99.90;;;;;;5069624;28;20136;-42
2023/08/19 08:41:25;;;;;;;12.20;6.28;;;26.30;99.90;;;;;;5062009;28;20596;-38
2023/08/19 08:43:52;;;;;;;12.10;7.22;;;26.30;99.90;;;;;;5074354;28;20028;-40
2023/08/19 08:46:21;;;;;;;9.15;6.93;;;26.30;99.90;;;;;;5073193;28;20028;-38
2023/08/19 08:48:47;;;;;;;12.48;7.45;;;26.40;99.90;;;;;;5073051;28;20040;-38
2023/08/19 08:51:15;;;;;;;20.35;7.47;;;26.50;99.90;;;;;;5073216;28;20024;-40
2023/08/19 08:53:41;;;;;;;10.63;7.22;;;26.60;99.90;;;;;;5073200;28;20024;-62
2023/08/19 08:56:07;;;;;;;10.52;7.55;;;26.70;99.90;;;;;;5072694;28;20032;-44
2023/08/19 08:58:33;;;;;;;7.72;6.25;;;26.70;99.90;;;;;;5069865;28;20033;-39
2023/08/19 09:01:01;;;;;;;13.70;8.60;;;26.70;99.90;;;;;;5065586;28;20032;-39
2023/08/19 09:03:32;;;;;;;15.80;8.15;;;26.70;99.90;;;;;;5068187;28;20028;-40
2023/08/19 09:06:06;;;;;;;14.57;8.43;;;26.80;99.90;;;;;;5073618;28;20044;-39
2023/08/19 09:08:41;;;;;;;12.55;8.80;;;26.90;99.90;;;;;;5070280;28;20020;-39
2023/08/19 09:11:11;;;;;;;12.55;8.40;;;27.30;99.90;;;;;;5072307;28;20509;-41
2023/08/19 09:13:39;;;;;;;16.20;9.45;;;27.70;99.90;;;;;;5073464;28;20033;-37
2023/08/19 09:16:10;;;;;;;13.82;9.27;;;28.20;99.90;;;;;;5072680;28;20029;-37
2023/08/19 09:18:36;;;;;;;16.23;8.25;;;28.70;99.90;;;;;;5065194;28;20533;-37
2023/08/19 09:21:02;;;;;;;12.77;8.53;;;29.00;99.90;;;;;;5052451;28;20045;-41
2023/08/19 09:23:30;;;;;;;14.63;8.30;;;29.00;99.90;;;;;;5052353;28;20673;-38
2023/08/19 09:26:00;;;;;;;20.13;9.43;;;28.80;99.90;;;;;;5047531;28;20017;-37
2023/08/19 09:28:26;;;;;;;13.52;8.63;;;28.70;99.90;;;;;;5051446;28;20437;-37
2023/08/19 09:30:52;;;;;;;14.70;7.10;;;28.50;99.90;;;;;;5047525;28;20557;-44
2023/08/19 09:33:21;;;;;;;12.40;7.50;;;28.30;99.90;;;;;;5040611;28;20021;-39
2023/08/19 09:35:54;;;;;;;10.15;7.30;;;28.00;99.90;;;;;;5029435;28;20529;-38
2023/08/19 09:38:23;;;;;;;8.90;6.03;;;27.70;99.90;;;;;;5042320;28;20033;-41
2023/08/19 09:41:08;;;;;;;11.30;7.30;;;27.30;99.90;;;;;;5039642;28;20028;-38
2023/08/19 09:43:39;;;;;;;12.32;6.10;;;26.90;99.90;;;;;;5049422;28;20025;-39
2023/08/19 09:46:04;;;;;;;11.93;6.78;;;26.60;99.90;;;;;;5048391;28;20119;-40
2023/08/19 09:48:30;;;;;;;16.77;6.30;;;26.30;99.90;;;;;;5048658;28;21482;-42
2023/08/19 09:50:56;;;;;;;6.68;5.40;;;26.10;99.90;;;;;;5047874;28;20025;-37
2023/08/19 09:53:22;;;;;;;8.07;5.03;;;26.00;99.90;;;;;;5048146;28;20567;-39
2023/08/19 09:55:49;;;;;;;7.38;5.28;;;26.10;99.90;;;;;;5049406;28;20056;-44
2023/08/19 09:58:15;;;;;;;;;;;26.20;99.90;;;;;;5049795;28;20036;-41
2023/08/19 10:00:41;;;;;;;8.27;4.10;;;26.20;99.90;;;;;;5049979;28;19908;-49
2023/08/19 10:03:07;;;;;;;4.53;3.88;;;26.00;99.90;;;;;;5049630;28;20437;-49
2023/08/19 10:05:38;;;;;;;5.32;4.07;;;26.00;99.90;;;;;;5049408;28;20120;-51
2023/08/19 10:08:08;;;;;;;5.25;3.63;;;26.00;99.90;;;;;;5049450;28;20366;-44
2023/08/19 10:10:39;;;;;;;5.95;3.65;;;25.90;99.90;;;;;;5049599;28;20079;-50
2023/08/19 10:13:08;;;;;;;7.80;4.15;;;25.80;99.90;;;;;;5049118;28;20046;-49
2023/08/19 10:15:36;;;;;;;7.03;3.65;;;25.60;99.90;;;;;;5049077;28;20083;-49
2023/08/19 10:18:09;;;;;;;4.82;3.58;;;25.40;99.90;;;;;;5047550;28;20115;-50
2023/08/19 10:20:36;;;;;;;7.03;3.33;;;25.50;99.90;;;;;;5068043;28;20047;-48
2023/08/19 10:23:05;;;;;;;5.20;3.33;;;25.80;99.90;;;;;;5069093;28;20048;-49
2023/08/19 10:25:31;;;;;;;9.35;3.40;;;25.80;99.90;;;;;;5064021;28;20032;-50
2023/08/19 10:28:21;;;;;;;6.40;3.05;;;25.80;99.90;;;;;;5069002;28;20077;-41
2023/08/19 10:31:03;;;;;;;9.00;2.67;;;25.80;99.90;;;;;;5065026;28;20032;-38
2023/08/19 10:33:37;;;;;;;4.25;2.95;;;25.70;99.90;;;;;;5061265;28;20505;-40
2023/08/19 10:36:05;;;;;;;8.82;3.05;;;25.70;99.90;;;;;;5065645;28;20033;-39
2023/08/19 10:38:53;;;;;;;4.22;2.85;;;25.60;99.90;;;;;;5067861;28;20555;-40
2023/08/19 10:41:27;;;;;;;8.85;3.50;;;25.50;99.90;;;;;;5064486;28;20040;-40
2023/08/19 10:44:00;;;;;;;3.67;2.78;;;25.40;99.90;;;;;;5067787;28;20082;-38
2023/08/19 10:46:30;;;;;;;7.13;3.53;;;25.30;99.90;;;;;;5067923;28;20515;-38
2023/08/19 10:48:56;;;;;;;8.75;3.25;;;25.30;99.90;;;;;;5049224;28;20032;-40
2023/08/19 10:51:51;;;;;;;4.60;3.03;;;25.30;99.90;;;;;;5069484;28;20435;-42
2023/08/19 10:54:40;;;;;;;2.63;2.42;;;25.30;99.90;;;;;;5067921;28;20393;-39
2023/08/19 10:57:12;;;;;;;4.18;2.63;;;25.40;99.90;;;;;;5068834;28;20036;-42
2023/08/19 10:59:40;;;;;;;6.85;3.85;;;25.40;99.90;;;;;;5059980;28;20037;-42
2023/08/19 11:02:06;;;;;;;6.38;3.25;;;25.30;99.90;;;;;;5068371;28;20714;-41
2023/08/19 11:04:33;;;;;;;4.75;3.15;;;25.20;99.90;;;;;;5068325;28;20106;-45
2023/08/19 11:06:59;;;;;;;4.85;2.95;;;25.10;99.90;;;;;;5064565;28;20035;-41
2023/08/19 11:09:26;;;;;;;5.03;3.63;;;25.10;99.90;;;;;;5045931;28;20032;-41
2023/08/19 11:11:54;;;;;;;6.85;3.05;;;25.10;99.90;;;;;;5067398;28;20075;-38
2023/08/19 11:14:22;;;;;;;4.45;3.10;;;25.10;99.90;;;;;;5067624;28;20028;-40
2023/08/19 11:16:55;;;;;;;6.80;3.47;;;25.00;99.90;;;;;;5065937;28;20054;-39
2023/08/19 11:19:21;;;;;;;13.07;3.90;;;25.10;99.90;;;;;;5066120;28;20043;-41
2023/08/19 11:21:47;;;;;;;4.80;3.13;;;25.20;99.90;;;;;;5066348;28;20036;-42
2023/08/19 11:24:14;;;;;;;9.90;3.70;;;25.40;99.90;;;;;;5047977;28;20025;-43
2023/08/19 11:26:40;;;;;;;6.30;3.70;;;25.50;99.90;;;;;;5069944;28;20177;-40
2023/08/19 11:29:09;;;;;;;6.53;4.18;;;25.70;99.90;;;;;;5069338;28;20031;-43
2023/08/19 11:31:39;;;;;;;9.48;4.53;;;25.80;99.90;;;;;;5069453;28;20043;-42
2023/08/19 11:34:12;;;;;;;11.48;4.18;;;25.60;99.90;;;;;;5060759;28;20119;-42
2023/08/19 11:36:39;;;;;;;8.68;4.65;;;25.50;99.90;;;;;;5068948;28;20641;-40
2023/08/19 11:39:05;;;;;;;9.52;4.35;;;25.60;99.90;;;;;;5072028;28;20127;-42
2023/08/19 11:41:32;;;;;;;10.18;4.95;;;25.70;99.90;;;;;;5070836;28;20120;-37
2023/08/19 11:43:59;;;;;;;9.45;4.43;;;25.60;99.90;;;;;;5068419;28;20035;-38
2023/08/19 11:46:31;;;;;;;6.72;4.20;;;25.70;99.90;;;;;;5071720;28;20028;-39
2023/08/19 11:48:58;;;;;;;5.30;3.85;;;25.80;99.90;;;;;;5071894;28;20525;-42
2023/08/19 11:51:26;;;;;;;7.25;3.92;;;25.70;99.90;;;;;;5071901;28;20028;-38
2023/08/19 11:53:54;;;;;;;6.05;4.00;;;25.80;99.90;;;;;;5069019;28;20063;-38
2023/08/19 11:56:20;;;;;;;8.65;5.25;;;25.90;99.90;;;;;;5051676;28;20190;-38
2023/08/19 11:58:51;;;;;;;8.17;5.07;;;26.00;99.90;;;;;;5073775;28;20039;-38
2023/08/19 12:01:30;;;;;;;12.82;5.25;;;26.00;99.90;;;;;;5076009;28;20419;-40
2023/08/19 12:03:56;;;;;;;8.02;4.65;;;25.80;99.90;;;;;;5075983;28;20024;-38
2023/08/19 12:06:21;;;;;;;6.43;4.57;;;25.70;99.90;;;;;;5073725;28;20362;-38
2023/08/19 12:08:48;;;;;;;6.53;4.18;;;25.60;99.90;;;;;;5072015;28;20074;-38
2023/08/19 12:11:22;;;;;;;10.13;4.37;;;25.60;99.90;;;;;;5075128;28;20452;-39
2023/08/19 12:13:49;;;;;;;5.32;2.95;;;25.60;99.90;;;;;;5072434;28;20036;-40
2023/08/19 12:16:15;;;;;;;7.88;3.53;;;25.40;99.90;;;;;;5074855;28;20447;-40
2023/08/19 12:18:41;;;;;;;4.85;3.47;;;25.30;99.90;;;;;;5074694;28;20037;-37
2023/08/19 12:21:06;;;;;;;4.53;3.85;;;25.20;99.90;;;;;;5075161;28;20012;-38
2023/08/19 12:23:32;;;;;;;7.55;3.67;;;25.20;99.90;;;;;;5074830;28;20465;-39
2023/08/19 12:25:59;;;;;;;7.95;3.78;;;25.30;99.90;;;;;;5056699;28;20012;-38
2023/08/19 12:28:26;;;;;;;12.88;2.95;;;25.40;99.90;;;;;;5073960;28;20062;-37
2023/08/19 12:30:52;;;;;;;9.70;3.65;;;25.50;99.90;;;;;;5074240;28;20020;-40
2023/08/19 12:33:19;;;;;;;6.28;2.47;;;25.50;99.90;;;;;;5069284;28;20512;-39
2023/08/19 12:35:46;;;;;;;10.98;2.58;;;25.50;99.90;;;;;;5071052;28;20032;-39
2023/08/19 12:38:17;;;;;;;6.20;1.92;;;25.40;99.90;;;;;;5073485;28;20025;-39
2023/08/19 12:40:44;;;;;;;6.07;2.10;;;25.20;99.90;;;;;;5055129;28;20021;-44